createdAt,value
2023-05-05T00:01:51.142Z,2.63
2023-05-05T00:04:17.999Z,2.63
2023-05-05T00:06:44.868Z,2.58
2023-05-05T00:09:30.287Z,2.75
2023-05-05T00:12:15.625Z,2.40
2023-05-05T00:14:42.738Z,2.75
2023-05-05T00:17:10.711Z,2.80
2023-05-05T00:19:37.463Z,2.90
2023-05-05T00:22:04.227Z,2.95
2023-05-05T00:24:31.055Z,2.38
2023-05-05T00:27:16.545Z,2.90
2023-05-05T00:29:43.182Z,2.70
2023-05-05T00:32:09.908Z,2.60
2023-05-05T00:34:38.475Z,2.78
2023-05-05T00:37:05.852Z,2.45
2023-05-05T00:39:33.346Z,2.45
2023-05-05T00:42:01.013Z,2.63
2023-05-05T00:44:41.680Z,2.60
2023-05-05T00:47:09.753Z,2.53
2023-05-05T00:49:37.305Z,2.55
2023-05-05T00:52:05.380Z,2.67
2023-05-05T00:54:33.534Z,2.45
2023-05-05T00:57:02.215Z,3.30
2023-05-05T00:59:31.152Z,2.83
2023-05-05T01:01:58.051Z,3.10
2023-05-05T01:04:26.994Z,3.15
2023-05-05T01:07:13.910Z,2.70
2023-05-05T01:10:15.601Z,2.95
2023-05-05T01:12:55.112Z,2.97
2023-05-05T01:15:40.622Z,2.53
2023-05-05T01:18:13.992Z,2.95
2023-05-05T01:20:46.540Z,3.17
2023-05-05T01:23:25.647Z,2.80
2023-05-05T01:26:07.529Z,2.53
2023-05-05T01:29:12.153Z,2.83
2023-05-05T01:31:54.992Z,3.22
2023-05-05T01:34:28.274Z,2.90
2023-05-05T01:37:12.123Z,2.67
2023-05-05T01:39:41.321Z,2.90
2023-05-05T01:42:14.048Z,3.05
2023-05-05T01:44:46.695Z,3.25
2023-05-05T01:47:16.207Z,3.40
2023-05-05T01:49:47.801Z,3.10
2023-05-05T01:52:16.064Z,2.80
2023-05-05T01:54:46.676Z,3.17
2023-05-05T01:57:14.763Z,2.75
2023-05-05T01:59:41.411Z,2.88
2023-05-05T02:02:12.352Z,3.53
2023-05-05T02:04:43.784Z,3.03
2023-05-05T02:07:12.766Z,3.33
2023-05-05T02:09:41.032Z,2.97
2023-05-05T02:12:08.585Z,4.20
2023-05-05T02:14:37.136Z,3.50
2023-05-05T02:17:04.251Z,3.85
2023-05-05T02:19:39.790Z,3.28
2023-05-05T02:22:06.817Z,3.17
2023-05-05T02:24:34.171Z,3.03
2023-05-05T02:27:03.866Z,3.20
2023-05-05T02:29:47.035Z,3.75
2023-05-05T02:32:37.621Z,3.28
2023-05-05T02:35:36.732Z,3.28
2023-05-05T02:38:05.710Z,3.22
2023-05-05T02:40:40.824Z,3.20
2023-05-05T02:43:11.542Z,3.15
2023-05-05T02:45:38.434Z,4.05
2023-05-05T02:48:06.782Z,3.33
2023-05-05T02:50:33.722Z,3.00
2023-05-05T02:53:01.715Z,3.47
2023-05-05T02:55:37.175Z,3.28
2023-05-05T02:58:16.480Z,2.95
2023-05-05T03:01:04.999Z,3.17
2023-05-05T03:03:43.339Z,3.25
2023-05-05T03:06:24.986Z,3.22
2023-05-05T03:09:03.556Z,3.20
2023-05-05T03:11:41.309Z,3.40
2023-05-05T03:14:11.824Z,3.15
2023-05-05T03:16:40.993Z,3.50
2023-05-05T03:19:11.495Z,3.80
2023-05-05T03:21:39.213Z,3.40
2023-05-05T03:24:19.507Z,3.03
2023-05-05T03:26:48.011Z,3.33
2023-05-05T03:29:33.424Z,3.45
2023-05-05T03:32:01.499Z,3.38
2023-05-05T03:34:28.142Z,3.22
2023-05-05T03:36:54.794Z,3.50
2023-05-05T03:39:21.519Z,3.67
2023-05-05T03:41:48.186Z,3.60
2023-05-05T03:44:17.749Z,3.75
2023-05-05T03:46:44.500Z,3.60
2023-05-05T03:49:11.247Z,3.90
2023-05-05T03:51:39.231Z,4.07
2023-05-05T03:54:05.913Z,3.55
2023-05-05T03:56:33.434Z,3.60
2023-05-05T03:59:00.068Z,3.80
2023-05-05T04:01:27.020Z,4.20
2023-05-05T04:03:53.742Z,4.22
2023-05-05T04:06:20.455Z,4.30
2023-05-05T04:08:47.120Z,3.90
2023-05-05T04:11:14.622Z,4.05
2023-05-05T04:13:41.795Z,3.92
2023-05-05T04:16:09.393Z,4.15
2023-05-05T04:18:36.338Z,4.40
2023-05-05T04:21:05.684Z,4.35
2023-05-05T04:23:32.329Z,4.10
2023-05-05T04:25:59.037Z,3.95
2023-05-05T04:28:25.709Z,4.65
2023-05-05T04:30:52.426Z,4.75
2023-05-05T04:33:19.178Z,4.10
2023-05-05T04:35:48.700Z,4.68
2023-05-05T04:38:15.344Z,4.78
2023-05-05T04:40:42.975Z,4.82
2023-05-05T04:43:09.702Z,4.70
2023-05-05T04:45:36.420Z,5.30
2023-05-05T04:48:07.910Z,5.47
2023-05-05T04:50:34.649Z,5.13
2023-05-05T04:53:01.263Z,5.10
2023-05-05T04:55:29.438Z,5.63
2023-05-05T04:57:57.006Z,5.70
2023-05-05T05:00:24.086Z,5.85
2023-05-05T05:02:50.743Z,5.20
2023-05-05T05:05:18.449Z,6.13
2023-05-05T05:07:47.197Z,6.07
2023-05-05T05:10:15.579Z,6.15
2023-05-05T05:12:42.409Z,5.57
2023-05-05T05:15:10.130Z,6.28
2023-05-05T05:17:36.823Z,6.38
2023-05-05T05:20:05.103Z,6.32
2023-05-05T05:22:32.412Z,6.20
2023-05-05T05:24:59.322Z,7.25
2023-05-05T05:27:44.774Z,6.28
2023-05-05T05:30:13.597Z,6.38
2023-05-05T05:32:40.273Z,6.80
2023-05-05T05:35:07.276Z,6.15
2023-05-05T05:37:37.268Z,5.93
2023-05-05T05:40:05.401Z,6.32
2023-05-05T05:42:34.236Z,6.45
2023-05-05T05:45:01.567Z,7.03
2023-05-05T05:47:28.414Z,6.35
2023-05-05T05:49:55.028Z,6.53
2023-05-05T05:52:21.631Z,6.60
2023-05-05T05:54:49.545Z,6.40
2023-05-05T05:57:16.202Z,5.80
2023-05-05T05:59:42.902Z,6.35
2023-05-05T06:02:09.771Z,6.10
2023-05-05T06:04:36.681Z,6.18
2023-05-05T06:07:03.426Z,5.90
2023-05-05T06:09:32.711Z,6.55
2023-05-05T06:11:59.310Z,6.10
2023-05-05T06:14:27.736Z,5.82
2023-05-05T06:16:55.286Z,6.15
2023-05-05T06:19:21.905Z,5.80
2023-05-05T06:21:48.533Z,6.43
2023-05-05T06:24:15.837Z,5.25
2023-05-05T06:26:42.539Z,6.07
2023-05-05T06:29:11.032Z,7.15
2023-05-05T06:31:38.871Z,6.10
2023-05-05T06:34:05.576Z,5.88
2023-05-05T06:36:32.524Z,5.68
2023-05-05T06:39:00.194Z,4.93
2023-05-05T06:41:27.975Z,4.65
2023-05-05T06:43:55.221Z,4.82
2023-05-05T06:46:21.851Z,4.30
2023-05-05T06:48:48.977Z,4.88
2023-05-05T06:51:16.202Z,4.28
2023-05-05T06:53:42.906Z,4.28
2023-05-05T06:56:09.623Z,3.47
2023-05-05T06:58:36.587Z,3.38
2023-05-05T07:01:04.104Z,3.67
2023-05-05T07:03:31.170Z,3.75
2023-05-05T07:05:57.867Z,4.13
2023-05-05T07:08:30.423Z,4.20
2023-05-05T07:10:57.039Z,4.20
2023-05-05T07:13:23.704Z,4.30
2023-05-05T07:15:50.494Z,4.15
2023-05-05T07:18:17.268Z,3.85
2023-05-05T07:20:46.790Z,4.28
2023-05-05T07:23:13.373Z,4.22
2023-05-05T07:25:40.077Z,4.82
2023-05-05T07:28:06.845Z,4.40
2023-05-05T07:30:33.568Z,4.93
2023-05-05T07:33:00.343Z,4.30
2023-05-05T07:35:46.140Z,4.60
2023-05-05T07:38:12.847Z,4.22
2023-05-05T07:40:39.424Z,4.20
2023-05-05T07:43:06.151Z,4.35
2023-05-05T07:45:33.178Z,3.85
2023-05-05T07:48:02.244Z,4.20
2023-05-05T07:50:28.902Z,4.95
2023-05-05T07:53:02.546Z,4.78
2023-05-05T07:55:40.134Z,4.63
2023-05-05T07:58:12.790Z,4.40
2023-05-05T08:00:39.852Z,4.70
2023-05-05T08:03:11.378Z,5.35
2023-05-05T08:05:38.715Z,5.13
2023-05-05T08:08:07.055Z,4.60
2023-05-05T08:10:33.716Z,5.75
2023-05-05T08:13:00.419Z,5.13
2023-05-05T08:15:27.148Z,4.90
2023-05-05T08:17:57.257Z,4.95
2023-05-05T08:20:28.677Z,4.78
2023-05-05T08:22:55.253Z,4.80
2023-05-05T08:25:23.430Z,5.25
2023-05-05T08:27:52.881Z,4.70
2023-05-05T08:30:21.489Z,4.28
2023-05-05T08:32:48.190Z,4.88
2023-05-05T08:35:18.311Z,4.95
2023-05-05T08:37:45.276Z,5.05
2023-05-05T08:40:37.638Z,5.68
2023-05-05T08:43:06.009Z,5.20
2023-05-05T08:45:33.298Z,5.20
2023-05-05T08:48:05.322Z,4.97
2023-05-05T08:50:32.642Z,4.78
2023-05-05T08:53:02.303Z,5.28
2023-05-05T08:55:34.621Z,5.40
2023-05-05T08:58:04.202Z,5.53
2023-05-05T09:00:32.512Z,5.28
2023-05-05T09:03:02.343Z,5.30
2023-05-05T09:05:29.819Z,5.30
2023-05-05T09:07:57.051Z,5.35
2023-05-05T09:10:26.164Z,5.20
2023-05-05T09:12:52.888Z,4.80
2023-05-05T09:15:19.587Z,4.90
2023-05-05T09:17:47.187Z,4.47
2023-05-05T09:20:14.844Z,5.10
2023-05-05T09:22:44.888Z,5.80
2023-05-05T09:25:14.363Z,4.65
2023-05-05T09:27:43.229Z,4.03
2023-05-05T09:30:15.583Z,4.00
2023-05-05T09:32:49.172Z,3.25
2023-05-05T09:35:18.530Z,3.22
2023-05-05T09:37:45.297Z,3.42
2023-05-05T09:40:18.097Z,3.30
2023-05-05T09:42:45.533Z,2.63
2023-05-05T09:45:17.935Z,2.92
2023-05-05T09:47:48.164Z,2.70
2023-05-05T09:50:18.852Z,3.05
2023-05-05T09:53:01.298Z,3.30
2023-05-05T09:55:28.174Z,2.50
2023-05-05T09:57:54.890Z,2.70
2023-05-05T10:00:22.205Z,2.63
2023-05-05T10:02:48.996Z,2.50
2023-05-05T10:05:19.135Z,2.67
2023-05-05T10:07:47.476Z,2.53
2023-05-05T10:10:18.639Z,2.90
2023-05-05T10:12:50.005Z,2.13
2023-05-05T10:15:16.922Z,2.30
2023-05-05T10:20:20.646Z,1.88
2023-05-05T10:22:56.852Z,1.95
2023-05-05T10:25:35.221Z,2.40
2023-05-05T10:28:06.957Z,2.20
2023-05-05T10:30:39.286Z,2.20
2023-05-05T10:35:53.023Z,2.42
2023-05-05T10:38:20.871Z,2.45
2023-05-05T10:40:48.980Z,2.25
2023-05-05T10:43:15.794Z,1.92
2023-05-05T10:45:43.525Z,2.35
2023-05-05T10:48:27.824Z,1.90
2023-05-05T10:51:06.305Z,2.10
2023-05-05T10:53:41.660Z,1.77
2023-05-05T10:56:10.959Z,2.15
2023-05-05T10:58:55.550Z,1.95
2023-05-05T11:01:33.680Z,1.88
2023-05-05T11:04:23.772Z,1.73
2023-05-05T11:07:09.818Z,1.85
2023-05-05T11:10:01.682Z,1.90
2023-05-05T11:12:32.336Z,2.08
2023-05-05T11:15:25.088Z,2.10
2023-05-05T11:17:53.039Z,1.85
2023-05-05T11:20:40.956Z,1.70
2023-05-05T11:23:07.713Z,1.20
2023-05-05T11:25:42.126Z,1.48
2023-05-05T11:28:12.879Z,1.55
2023-05-05T11:30:58.672Z,1.42
2023-05-05T11:33:37.222Z,1.30
2023-05-05T11:36:09.078Z,1.63
2023-05-05T11:38:51.079Z,1.60
2023-05-05T11:41:33.753Z,1.48
2023-05-05T11:44:17.261Z,1.20
2023-05-05T11:46:53.138Z,1.33
2023-05-05T11:49:34.868Z,1.00
2023-05-05T11:52:03.668Z,1.00
2023-05-05T11:54:31.254Z,1.00
2023-05-05T11:57:02.054Z,1.15
2023-05-05T11:59:28.725Z,1.00
2023-05-05T12:01:55.722Z,0.80
2023-05-05T12:04:22.495Z,0.98
2023-05-05T12:06:49.280Z,0.80
2023-05-05T12:09:20.652Z,1.20
2023-05-05T12:11:55.448Z,0.93
2023-05-05T12:14:23.760Z,0.75
2023-05-05T12:16:57.113Z,1.10
2023-05-05T12:19:32.985Z,1.10
2023-05-05T12:22:03.975Z,0.90
2023-05-05T12:24:32.513Z,1.15
2023-05-05T12:27:13.272Z,1.05
2023-05-05T12:29:41.548Z,0.90
2023-05-05T12:32:18.707Z,1.13
2023-05-05T12:34:45.778Z,0.70
2023-05-05T12:37:12.700Z,0.88
2023-05-05T12:39:39.383Z,1.45
2023-05-05T12:42:07.186Z,1.20
2023-05-05T12:44:37.849Z,1.05
2023-05-05T12:47:05.415Z,0.82
2023-05-05T12:49:54.177Z,0.90
2023-05-05T12:52:21.149Z,0.82
2023-05-05T12:54:58.674Z,1.20
2023-05-05T12:57:29.961Z,0.60
2023-05-05T12:59:58.369Z,0.60
2023-05-05T13:02:35.177Z,0.88
2023-05-05T13:05:01.852Z,0.90
2023-05-05T13:07:31.425Z,0.70
2023-05-05T13:10:10.990Z,0.80
2023-05-05T13:12:37.765Z,0.55
2023-05-05T13:15:04.683Z,0.50
2023-05-05T13:17:34.610Z,0.52
2023-05-05T13:20:01.419Z,0.63
2023-05-05T13:22:28.998Z,0.70
2023-05-05T13:24:55.560Z,1.08
2023-05-05T13:27:23.774Z,0.90
2023-05-05T13:29:50.468Z,1.15
2023-05-05T13:32:17.088Z,0.68
2023-05-05T13:34:44.253Z,0.80
2023-05-05T13:37:10.934Z,0.60
2023-05-05T13:39:40.892Z,0.90
2023-05-05T13:42:07.494Z,0.90
2023-05-05T13:44:35.345Z,1.05
2023-05-05T13:47:03.078Z,1.10
2023-05-05T13:49:29.859Z,0.88
2023-05-05T13:51:56.583Z,1.00
2023-05-05T13:54:23.262Z,1.00
2023-05-05T13:56:49.909Z,0.77
2023-05-05T13:59:19.200Z,0.80
2023-05-05T14:01:46.021Z,0.73
2023-05-05T14:04:12.715Z,0.90
2023-05-05T14:06:39.484Z,0.80
2023-05-05T14:09:07.725Z,1.00
2023-05-05T14:11:34.370Z,0.43
2023-05-05T14:14:01.665Z,0.95
2023-05-05T14:16:29.443Z,0.60
2023-05-05T14:18:56.153Z,0.63
2023-05-05T14:21:22.692Z,0.85
2023-05-05T14:23:49.353Z,0.77
2023-05-05T14:26:16.118Z,0.73
2023-05-05T14:28:43.630Z,0.60
2023-05-05T14:31:11.271Z,0.55
2023-05-05T14:33:37.981Z,0.85
2023-05-05T14:36:04.914Z,0.75
2023-05-05T14:38:31.497Z,0.80
2023-05-05T14:40:58.989Z,0.77
2023-05-05T14:43:25.723Z,0.50
2023-05-05T14:45:52.979Z,0.80
2023-05-05T14:48:26.955Z,0.77
2023-05-05T14:50:53.521Z,0.63
2023-05-05T14:53:20.398Z,0.95
2023-05-05T14:55:47.972Z,0.73
2023-05-05T14:58:18.706Z,0.93
2023-05-05T15:00:45.429Z,0.98
2023-05-05T15:03:17.904Z,0.98
2023-05-05T15:05:44.543Z,0.88
2023-05-05T15:08:11.567Z,0.90
2023-05-05T15:10:38.173Z,0.95
2023-05-05T15:13:06.674Z,0.90
2023-05-05T15:15:33.294Z,0.90
2023-05-05T15:17:59.880Z,0.77
2023-05-05T15:20:26.734Z,1.25
2023-05-05T15:22:54.889Z,1.10
2023-05-05T15:25:22.477Z,0.85
2023-05-05T15:27:49.412Z,0.88
2023-05-05T15:30:16.124Z,0.93
2023-05-05T15:32:42.794Z,1.10
2023-05-05T15:35:09.748Z,1.13
2023-05-05T15:37:37.910Z,1.00
2023-05-05T15:40:07.960Z,1.00
2023-05-05T15:42:34.860Z,1.30
2023-05-05T15:45:01.880Z,1.15
2023-05-05T15:47:28.753Z,1.20
2023-05-05T15:49:57.351Z,1.13
2023-05-05T15:52:24.028Z,0.90
2023-05-05T15:54:51.610Z,1.17
2023-05-05T15:57:18.284Z,1.17
2023-05-05T15:59:46.525Z,0.75
2023-05-05T16:02:13.311Z,1.00
2023-05-05T16:04:39.903Z,1.25
2023-05-05T16:07:06.565Z,0.90
2023-05-05T16:09:33.235Z,1.00
2023-05-05T16:11:59.953Z,1.05
2023-05-05T16:14:27.956Z,0.70
2023-05-05T16:16:55.555Z,0.85
2023-05-05T16:19:41.060Z,0.70
2023-05-05T16:22:07.790Z,0.80
2023-05-05T16:24:34.863Z,0.50
2023-05-05T16:27:01.545Z,0.68
2023-05-05T16:29:28.263Z,0.70
2023-05-05T16:31:55.051Z,0.60
2023-05-05T16:34:21.924Z,0.60
2023-05-05T16:36:48.539Z,0.63
2023-05-05T16:39:21.316Z,0.65
2023-05-05T16:41:48.100Z,0.60
2023-05-05T16:44:14.836Z,0.50
2023-05-05T16:46:42.766Z,0.45
2023-05-05T16:49:09.437Z,0.68
2023-05-05T16:51:37.417Z,0.50
2023-05-05T16:54:04.064Z,0.82
2023-05-05T16:56:49.503Z,0.40
2023-05-05T16:59:18.344Z,0.65
2023-05-05T17:01:45.188Z,0.55
2023-05-05T17:04:11.951Z,0.80
2023-05-05T17:06:42.348Z,0.40
2023-05-05T17:09:09.713Z,0.70
2023-05-05T17:11:36.453Z,0.38
2023-05-05T17:14:06.012Z,0.70
2023-05-05T17:16:35.610Z,0.70
2023-05-05T17:19:02.326Z,1.20
2023-05-05T17:21:29.245Z,0.70
2023-05-05T17:23:58.024Z,1.05
2023-05-05T17:26:24.790Z,0.77
2023-05-05T17:28:52.142Z,0.70
2023-05-05T17:31:18.740Z,0.40
2023-05-05T17:33:46.251Z,0.65
2023-05-05T17:36:12.962Z,1.00
2023-05-05T17:38:41.398Z,1.20
2023-05-05T17:41:08.047Z,0.90
2023-05-05T17:43:35.228Z,1.00
2023-05-05T17:46:01.869Z,1.02
2023-05-05T17:48:28.609Z,0.80
2023-05-05T17:50:55.974Z,1.08
2023-05-05T17:53:25.321Z,0.90
2023-05-05T17:55:51.828Z,0.88
2023-05-05T17:58:18.778Z,0.93
2023-05-05T18:00:45.646Z,0.80
2023-05-05T18:03:12.967Z,0.85
2023-05-05T18:05:39.778Z,0.73
2023-05-05T18:08:06.942Z,1.10
2023-05-05T18:10:33.927Z,1.10
2023-05-05T18:13:00.604Z,1.02
2023-05-05T18:15:27.391Z,1.20
2023-05-05T18:17:56.249Z,1.30
2023-05-05T18:20:22.883Z,1.20
2023-05-05T18:22:52.336Z,0.95
2023-05-05T18:25:19.221Z,1.13
2023-05-05T18:27:46.336Z,1.10
2023-05-05T18:30:13.258Z,1.30
2023-05-05T18:32:40.363Z,1.02
2023-05-05T18:35:07.787Z,0.90
2023-05-05T18:37:35.336Z,1.02
2023-05-05T18:40:01.975Z,1.80
2023-05-05T18:42:30.465Z,1.63
2023-05-05T18:44:57.232Z,1.50
2023-05-05T18:47:23.932Z,1.23
2023-05-05T18:49:50.478Z,0.90
2023-05-05T18:52:18.816Z,1.05
2023-05-05T18:54:45.592Z,1.10
2023-05-05T18:57:12.300Z,1.45
2023-05-05T18:59:38.965Z,1.60
2023-05-05T19:02:07.525Z,1.58
2023-05-05T19:04:37.414Z,1.10
2023-05-05T19:07:04.884Z,1.15
2023-05-05T19:09:31.714Z,1.30
2023-05-05T19:12:02.923Z,1.05
2023-05-05T19:14:29.792Z,0.93
2023-05-05T19:16:59.028Z,0.95
2023-05-05T19:19:26.020Z,1.20
2023-05-05T19:21:52.648Z,1.10
2023-05-05T19:24:19.282Z,1.10
2023-05-05T19:26:46.322Z,1.20
2023-05-05T19:29:13.182Z,1.50
2023-05-05T19:31:42.678Z,1.15
2023-05-05T19:34:09.266Z,1.58
2023-05-05T19:36:38.144Z,1.90
2023-05-05T19:39:05.133Z,1.60
2023-05-05T19:41:35.179Z,1.58
2023-05-05T19:44:01.909Z,1.50
2023-05-05T19:46:28.712Z,1.55
2023-05-05T19:48:57.016Z,2.08
2023-05-05T19:51:23.724Z,1.52
2023-05-05T19:53:51.955Z,1.83
2023-05-05T19:56:18.733Z,1.83
2023-05-05T19:59:01.886Z,1.60
2023-05-05T20:01:30.151Z,1.55
2023-05-05T20:03:57.357Z,1.42
2023-05-05T20:06:24.385Z,1.50
2023-05-05T20:08:52.285Z,1.60
2023-05-05T20:11:20.182Z,1.48
2023-05-05T20:13:50.293Z,1.80
2023-05-05T20:16:17.175Z,1.70
2023-05-05T20:18:44.227Z,1.60
2023-05-05T20:21:10.993Z,1.70
2023-05-05T20:23:56.362Z,1.65
2023-05-05T20:26:24.612Z,1.60
2023-05-05T20:28:51.403Z,1.65
2023-05-05T20:31:19.854Z,1.80
2023-05-05T20:33:46.565Z,1.60
2023-05-05T20:36:13.354Z,1.67
2023-05-05T20:38:39.979Z,1.75
2023-05-05T20:41:09.406Z,1.60
2023-05-05T20:43:36.745Z,1.65
2023-05-05T20:46:03.368Z,1.80
2023-05-05T20:48:33.353Z,1.95
2023-05-05T20:51:03.540Z,1.80
2023-05-05T20:53:30.696Z,1.95
2023-05-05T20:55:57.467Z,2.10
2023-05-05T20:58:42.948Z,2.05
2023-05-05T21:01:09.563Z,1.92
2023-05-05T21:03:36.518Z,1.90
2023-05-05T21:06:03.170Z,2.00
2023-05-05T21:08:30.112Z,2.08
2023-05-05T21:10:56.805Z,2.00
2023-05-05T21:13:23.532Z,2.28
2023-05-05T21:15:50.485Z,2.15
2023-05-05T21:18:17.073Z,2.13
2023-05-05T21:20:43.684Z,2.38
2023-05-05T21:23:10.866Z,2.63
2023-05-05T21:25:37.604Z,2.45
2023-05-05T21:28:04.368Z,2.28
2023-05-05T21:30:31.201Z,2.22
2023-05-05T21:32:57.906Z,1.90
2023-05-05T21:35:24.622Z,2.22
2023-05-05T21:37:52.440Z,2.17
2023-05-05T21:40:19.108Z,2.25
2023-05-05T21:42:45.748Z,2.42
2023-05-05T21:45:14.977Z,2.50
2023-05-05T21:47:43.027Z,2.83
2023-05-05T21:50:10.967Z,3.20
2023-05-05T21:52:37.897Z,2.60
2023-05-05T21:55:04.968Z,2.90
2023-05-05T21:57:31.542Z,2.55
2023-05-05T21:59:58.151Z,2.65
2023-05-05T22:02:24.942Z,2.80
2023-05-05T22:05:10.556Z,2.67
2023-05-05T22:07:37.486Z,2.97
2023-05-05T22:10:04.429Z,2.90
2023-05-05T22:12:31.064Z,2.55
2023-05-05T22:15:03.293Z,2.33
2023-05-05T22:17:29.888Z,2.80
2023-05-05T22:19:56.883Z,2.90
2023-05-05T22:22:23.471Z,3.10
2023-05-05T22:24:50.046Z,2.90
2023-05-05T22:27:16.730Z,2.90
2023-05-05T22:29:43.331Z,2.60
2023-05-05T22:32:09.923Z,2.47
2023-05-05T22:34:37.929Z,2.95
2023-05-05T22:37:05.579Z,2.53
2023-05-05T22:39:33.325Z,2.70
2023-05-05T22:42:00.130Z,2.88
2023-05-05T22:44:26.755Z,2.75
2023-05-05T22:46:53.479Z,2.42
2023-05-05T22:49:20.323Z,2.83
2023-05-05T22:51:48.108Z,2.78
2023-05-05T22:54:14.788Z,2.58
2023-05-05T22:56:41.371Z,2.80
2023-05-05T22:59:08.161Z,3.10
2023-05-05T23:01:35.494Z,2.80
2023-05-05T23:04:02.465Z,2.97
2023-05-05T23:06:29.554Z,3.05
2023-05-05T23:08:56.151Z,2.95
2023-05-05T23:11:22.818Z,2.90
2023-05-05T23:13:49.371Z,2.80
2023-05-05T23:16:16.673Z,3.22
2023-05-05T23:18:43.332Z,2.70
2023-05-05T23:21:10.471Z,3.08
2023-05-05T23:23:37.013Z,2.95
2023-05-05T23:26:03.875Z,2.70
2023-05-05T23:28:30.985Z,2.85
2023-05-05T23:30:57.640Z,2.90
2023-05-05T23:33:24.427Z,2.70
2023-05-05T23:35:51.392Z,2.78
2023-05-05T23:38:17.998Z,2.78
2023-05-05T23:40:44.657Z,3.22
2023-05-05T23:43:12.086Z,3.30
2023-05-05T23:45:38.820Z,2.60
2023-05-05T23:48:05.820Z,2.85
2023-05-05T23:50:32.612Z,3.00
2023-05-05T23:52:59.296Z,2.63
2023-05-05T23:55:25.880Z,2.92
2023-05-05T23:57:53.145Z,2.50
